Time;durP1;ratioP1;P1;durP2;ratioP2;P2;SDS_P1;SDS_P2;PMS_P1;PMS_P2;Temp;Humidity;BMP_temperature;BMP_pressure;BME280_temperature;BME280_humidity;BME280_pressure;Samples;Min_cycle;Max_cycle;Signal;HPM_P1;HPM_P2
2021/05/23 00:01:15;;;;;;;4.68;2.45;;;;;;;;;;8326889;28;20379;-70
2021/05/23 00:05:27;;;;;;;4.10;2.35;;;;;;;;;;8303484;28;20383;-70
2021/05/23 00:09:31;;;;;;;4.47;2.15;;;;;;;;;;8328783;28;20344;-71
2021/05/23 00:13:46;;;;;;;3.28;1.95;;;;;;;;;;8330836;28;20344;-70
2021/05/23 00:17:51;;;;;;;6.65;2.25;;;;;;;;;;8329322;28;20498;-69
2021/05/23 00:21:56;;;;;;;6.60;2.60;;;;;;;;;;8329716;28;20340;-70
2021/05/23 00:26:01;;;;;;;7.65;3.67;;;;;;;;;;8311446;28;20379;-70
2021/05/23 00:30:08;;;;;;;7.88;3.67;;;;;;;;;;8328876;28;20362;-71
2021/05/23 00:34:13;;;;;;;7.32;3.78;;;;;;;;;;8328395;28;20060;-70
2021/05/23 00:38:18;;;;;;;13.73;5.95;;;;;;;;;;8328338;28;20471;-70
2021/05/23 00:42:23;;;;;;;39.30;14.32;;;;;;;;;;8328335;28;20447;-70
2021/05/23 00:46:28;;;;;;;34.30;17.40;;;;;;;;;;8310941;28;20082;-69
2021/05/23 00:50:36;;;;;;;13.95;7.15;;;;;;;;;;8328702;28;20344;-69
2021/05/23 00:54:41;;;;;;;9.48;5.20;;;;;;;;;;8328416;28;20378;-70
2021/05/23 00:58:47;;;;;;;19.52;12.38;;;;;;;;;;8328743;28;20490;-70
2021/05/23 01:03:01;;;;;;;8.50;4.68;;;;;;;;;;8310067;28;20413;-70
2021/05/23 01:07:07;;;;;;;11.73;7.68;;;;;;;;;;8327416;28;20506;-69
2021/05/23 01:11:18;;;;;;;13.55;7.22;;;;;;;;;;8311078;28;20371;-70
2021/05/23 01:15:55;;;;;;;9.63;5.38;;;;;;;;;;8328171;28;20056;-71
2021/05/23 01:20:14;;;;;;;9.13;6.20;;;;;;;;;;8304443;28;20052;-70
2021/05/23 01:24:41;;;;;;;17.15;10.13;;;;;;;;;;8326126;28;20474;-69
2021/05/23 01:28:55;;;;;;;21.48;11.50;;;;;;;;;;8310691;28;20467;-70
2021/05/23 01:33:02;;;;;;;22.92;9.80;;;;;;;;;;8327570;28;20060;-70
2021/05/23 01:37:15;;;;;;;39.85;20.02;;;;;;;;;;8309870;28;20385;-69
2021/05/23 01:41:20;;;;;;;45.75;21.85;;;;;;;;;;8327332;28;20363;-69
2021/05/23 01:45:26;;;;;;;78.82;30.70;;;;;;;;;;8308776;28;20359;-70
2021/05/23 01:49:31;;;;;;;87.88;33.15;;;;;;;;;;8308244;28;20052;-69
2021/05/23 01:53:37;;;;;;;96.25;35.40;;;;;;;;;;8308638;28;20125;-70
2021/05/23 01:57:43;;;;;;;119.82;36.47;;;;;;;;;;8326711;28;20363;-70
2021/05/23 02:01:48;;;;;;;105.07;32.47;;;;;;;;;;8309309;28;20080;-71
2021/05/23 02:05:55;;;;;;;77.10;27.98;;;;;;;;;;8325424;28;20497;-70
2021/05/23 02:10:05;;;;;;;68.57;24.95;;;;;;;;;;8325827;28;20383;-71
2021/05/23 02:14:11;;;;;;;37.17;15.38;;;;;;;;;;8326049;28;20048;-69
2021/05/23 02:18:17;;;;;;;26.80;12.20;;;;;;;;;;8308213;28;20390;-72
2021/05/23 02:22:21;;;;;;;15.20;9.55;;;;;;;;;;8325737;28;20462;-73
2021/05/23 02:26:26;;;;;;;14.50;8.57;;;;;;;;;;8325999;28;20413;-71
2021/05/23 02:30:43;;;;;;;15.32;7.82;;;;;;;;;;8326132;28;20447;-70
2021/05/23 02:34:49;;;;;;;8.13;5.32;;;;;;;;;;8307165;28;20412;-70
2021/05/23 02:38:55;;;;;;;8.07;4.43;;;;;;;;;;8307598;28;20341;-69
2021/05/23 02:43:01;;;;;;;5.97;4.97;;;;;;;;;;8307361;28;20332;-69
2021/05/23 02:47:06;;;;;;;6.13;3.92;;;;;;;;;;8292110;28;20475;-69
2021/05/23 02:51:11;;;;;;;7.47;4.47;;;;;;;;;;8293029;28;20410;-69
2021/05/23 02:55:17;;;;;;;25.75;12.27;;;;;;;;;;8291457;28;20479;-69
2021/05/23 02:59:22;;;;;;;27.55;11.68;;;;;;;;;;8291883;28;20368;-69
2021/05/23 03:03:27;;;;;;;19.40;11.77;;;;;;;;;;8293351;28;20056;-70
2021/05/23 03:07:38;;;;;;;25.63;14.10;;;;;;;;;;8291130;28;20060;-69
2021/05/23 03:11:43;;;;;;;11.73;7.43;;;;;;;;;;8306896;28;20044;-69
2021/05/23 03:15:48;;;;;;;26.20;14.27;;;;;;;;;;8289691;28;20052;-69
2021/05/23 03:19:53;;;;;;;24.88;12.75;;;;;;;;;;8291891;28;20557;-70
2021/05/23 03:23:58;;;;;;;53.17;26.10;;;;;;;;;;8290676;28;20403;-70
2021/05/23 03:28:04;;;;;;;58.40;30.73;;;;;;;;;;8291059;28;20056;-69
2021/05/23 03:32:09;;;;;;;21.77;12.00;;;;;;;;;;8292807;28;20048;-70
2021/05/23 03:36:15;;;;;;;17.27;11.10;;;;;;;;;;8287898;28;20475;-70
2021/05/23 03:40:21;;;;;;;6.85;3.88;;;;;;;;;;8289835;28;20469;-70
2021/05/23 03:44:26;;;;;;;8.40;4.60;;;;;;;;;;8288826;28;20467;-70
2021/05/23 03:48:33;;;;;;;7.28;3.55;;;;;;;;;;8288514;28;20484;-70
2021/05/23 03:52:38;;;;;;;5.47;2.90;;;;;;;;;;8272957;28;20467;-70
2021/05/23 03:56:43;;;;;;;7.13;3.13;;;;;;;;;;8289316;28;20456;-70
2021/05/23 04:00:47;;;;;;;8.63;3.00;;;;;;;;;;8291808;28;20053;-70
2021/05/23 04:04:56;;;;;;;9.15;3.42;;;;;;;;;;8289855;28;20383;-69
2021/05/23 04:09:01;;;;;;;10.20;5.93;;;;;;;;;;8290779;28;20469;-69
2021/05/23 04:13:08;;;;;;;19.25;11.52;;;;;;;;;;8290846;28;20390;-70
2021/05/23 04:17:13;;;;;;;13.38;8.80;;;;;;;;;;8292492;28;20362;-71
2021/05/23 04:21:19;;;;;;;9.52;4.97;;;;;;;;;;8289461;28;20493;-70
2021/05/23 04:25:26;;;;;;;9.43;4.13;;;;;;;;;;8289492;28;20455;-71
2021/05/23 04:29:33;;;;;;;12.55;3.72;;;;;;;;;;8290480;28;20333;-70
2021/05/23 04:33:38;;;;;;;15.98;5.03;;;;;;;;;;8289038;28;20380;-69
2021/05/23 04:37:45;;;;;;;8.25;3.38;;;;;;;;;;8289489;28;20386;-69
2021/05/23 04:41:50;;;;;;;14.88;4.20;;;;;;;;;;8299127;28;20370;-70
2021/05/23 04:45:55;;;;;;;9.52;3.25;;;;;;;;;;8312725;28;20350;-70
2021/05/23 04:50:00;;;;;;;7.75;3.30;;;;;;;;;;8328291;28;20473;-71
2021/05/23 04:54:06;;;;;;;7.00;3.00;;;;;;;;;;8331386;28;20344;-70
2021/05/23 04:58:10;;;;;;;12.27;3.38;;;;;;;;;;8327875;28;20387;-70
2021/05/23 05:02:15;;;;;;;6.05;3.60;;;;;;;;;;8330210;28;20360;-70
2021/05/23 05:06:20;;;;;;;5.97;2.22;;;;;;;;;;8328183;28;20071;-69
2021/05/23 05:10:25;;;;;;;4.50;1.80;;;;;;;;;;8327526;28;20473;-69
2021/05/23 05:14:30;;;;;;;7.25;1.85;;;;;;;;;;8308917;28;20434;-70
2021/05/23 05:18:38;;;;;;;6.13;2.53;;;;;;;;;;8327123;28;20375;-70
2021/05/23 05:22:43;;;;;;;4.07;1.90;;;;;;;;;;8329186;28;20371;-69
2021/05/23 05:26:48;;;;;;;6.45;2.05;;;;;;;;;;8330000;28;20112;-71
2021/05/23 05:30:53;;;;;;;3.80;2.00;;;;;;;;;;8326950;28;20078;-70
2021/05/23 05:34:58;;;;;;;6.80;1.95;;;;;;;;;;8308942;28;20547;-69
2021/05/23 05:39:05;;;;;;;4.95;2.08;;;;;;;;;;8329428;28;20446;-71
2021/05/23 05:43:12;;;;;;;3.97;1.58;;;;;;;;;;8326752;28;20485;-68
2021/05/23 05:47:17;;;;;;;6.03;1.50;;;;;;;;;;8326629;28;20344;-69
2021/05/23 05:51:22;;;;;;;4.60;1.98;;;;;;;;;;8326791;28;20447;-68
2021/05/23 05:55:27;;;;;;;23.65;11.30;;;;;;;;;;8327764;28;20359;-70
2021/05/23 05:59:32;;;;;;;25.45;12.13;;;;;;;;;;8326777;28;20082;-69
2021/05/23 06:03:37;;;;;;;7.03;3.70;;;;;;;;;;8325587;28;20475;-70
2021/05/23 06:07:44;;;;;;;3.58;2.47;;;;;;;;;;8327086;28;20359;-70
2021/05/23 06:11:48;;;;;;;8.10;4.43;;;;;;;;;;8308682;28;20379;-70
2021/05/23 06:15:54;;;;;;;2.97;1.90;;;;;;;;;;8326585;28;20478;-70
2021/05/23 06:19:59;;;;;;;4.00;1.92;;;;;;;;;;8308051;28;20413;-69
2021/05/23 06:24:04;;;;;;;4.10;1.90;;;;;;;;;;8327542;28;20047;-69
2021/05/23 06:28:09;;;;;;;2.92;1.83;;;;;;;;;;8325687;28;20471;-69
2021/05/23 06:32:14;;;;;;;7.50;3.17;;;;;;;;;;8324383;28;20078;-69
2021/05/23 06:36:18;;;;;;;6.32;2.42;;;;;;;;;;8327214;28;20370;-71
2021/05/23 06:40:24;;;;;;;5.13;2.22;;;;;;;;;;8308716;28;20375;-70
2021/05/23 06:44:28;;;;;;;5.47;2.35;;;;;;;;;;8324685;28;20352;-70
2021/05/23 06:48:33;;;;;;;8.10;3.50;;;;;;;;;;8325168;28;20467;-70
2021/05/23 06:52:37;;;;;;;6.90;2.40;;;;;;;;;;8324175;28;20429;-69
2021/05/23 06:56:42;;;;;;;7.45;3.28;;;;;;;;;;8325460;28;20386;-69
2021/05/23 07:00:47;;;;;;;4.07;2.08;;;;;;;;;;8324774;28;20340;-69
2021/05/23 07:04:52;;;;;;;5.18;2.15;;;;;;;;;;8324505;28;20059;-69
2021/05/23 07:08:57;;;;;;;4.35;2.35;;;;;;;;;;8323796;28;20397;-69
2021/05/23 07:13:02;;;;;;;6.15;2.13;;;;;;;;;;8324084;28;20390;-70
2021/05/23 07:17:07;;;;;;;3.63;1.55;;;;;;;;;;8324716;28;20465;-69
2021/05/23 07:21:11;;;;;;;3.90;1.60;;;;;;;;;;8324604;28;20478;-69
2021/05/23 07:25:16;;;;;;;3.42;1.23;;;;;;;;;;8323510;28;20417;-69
2021/05/23 07:29:21;;;;;;;2.92;1.42;;;;;;;;;;8323738;28;20374;-68
2021/05/23 07:33:25;;;;;;;3.75;1.60;;;;;;;;;;8324230;28;20387;-69
2021/05/23 07:37:31;;;;;;;5.15;2.08;;;;;;;;;;8322265;28;20386;-69
2021/05/23 07:41:35;;;;;;;4.80;2.55;;;;;;;;;;8322635;28;20359;-70
2021/05/23 07:45:41;;;;;;;5.22;1.80;;;;;;;;;;8323174;28;20386;-69
2021/05/23 07:49:46;;;;;;;5.35;1.85;;;;;;;;;;8304199;28;20454;-69
2021/05/23 07:53:51;;;;;;;4.65;2.40;;;;;;;;;;8323113;28;20467;-69
2021/05/23 07:57:56;;;;;;;5.03;1.73;;;;;;;;;;8322917;28;20052;-68
2021/05/23 08:02:01;;;;;;;5.07;2.47;;;;;;;;;;8324564;28;20370;-69
2021/05/23 08:06:08;;;;;;;8.93;4.03;;;;;;;;;;8322114;28;20456;-69
2021/05/23 08:10:13;;;;;;;3.93;1.40;;;;;;;;;;8322238;28;20052;-68
2021/05/23 08:14:19;;;;;;;3.42;1.50;;;;;;;;;;8289949;28;20382;-70
2021/05/23 08:18:28;;;;;;;3.45;1.35;;;;;;;;;;8308926;28;20056;-69
2021/05/23 08:22:34;;;;;;;5.35;2.25;;;;;;;;;;8329659;28;20359;-68
2021/05/23 08:26:39;;;;;;;6.40;1.98;;;;;;;;;;8328957;28;20394;-69
2021/05/23 08:30:45;;;;;;;5.30;1.98;;;;;;;;;;8327284;28;20435;-69
2021/05/23 08:34:51;;;;;;;6.72;3.17;;;;;;;;;;8331023;28;20060;-68
2021/05/23 08:38:55;;;;;;;5.15;2.83;;;;;;;;;;8330711;28;20473;-68
2021/05/23 08:43:03;;;;;;;8.18;2.45;;;;;;;;;;8328503;28;20066;-70
2021/05/23 08:47:08;;;;;;;;;;;;;;;;;;8328913;28;20474;-68
2021/05/23 08:51:13;;;;;;;8.55;3.38;;;;;;;;;;8328720;28;20258;-68
2021/05/23 08:55:18;;;;;;;10.55;2.97;;;;;;;;;;8330256;28;20459;-68
2021/05/23 08:59:23;;;;;;;4.07;2.35;;;;;;;;;;8328380;28;20056;-68
2021/05/23 09:03:28;;;;;;;8.05;3.15;;;;;;;;;;8327486;28;20470;-68
2021/05/23 09:07:33;;;;;;;4.47;1.50;;;;;;;;;;8327658;28;20462;-69
2021/05/23 09:11:40;;;;;;;3.17;1.90;;;;;;;;;;8309477;28;20397;-67
2021/05/23 09:15:45;;;;;;;6.13;1.80;;;;;;;;;;8327601;28;20477;-68
2021/05/23 09:19:51;;;;;;;4.20;2.00;;;;;;;;;;8329369;28;20056;-69
2021/05/23 09:24:10;;;;;;;4.63;1.63;;;;;;;;;;8326927;28;20386;-67
2021/05/23 09:28:15;;;;;;;5.68;2.58;;;;;;;;;;8327292;28;20328;-68
2021/05/23 09:32:20;;;;;;;8.80;3.90;;;;;;;;;;8327475;28;20374;-68
2021/05/23 09:36:25;;;;;;;6.88;1.75;;;;;;;;;;8326331;28;20447;-68
2021/05/23 09:40:34;;;;;;;4.95;1.38;;;;;;;;;;8329202;28;20489;-68
2021/05/23 09:44:40;;;;;;;4.18;1.77;;;;;;;;;;8274197;28;20475;-67
2021/05/23 09:48:50;;;;;;;4.97;2.10;;;;;;;;;;8260972;28;20386;-68
2021/05/23 09:52:56;;;;;;;3.10;1.80;;;;;;;;;;8260780;28;20478;-68
2021/05/23 09:57:12;;;;;;;3.30;1.80;;;;;;;;;;8259256;28;20460;-67
2021/05/23 10:01:43;;;;;;;4.35;1.35;;;;;;;;;;8260645;28;20464;-68
2021/05/23 10:05:48;;;;;;;17.40;7.15;;;;;;;;;;8257600;28;20071;-69
2021/05/23 10:09:53;;;;;;;2.20;1.20;;;;;;;;;;8262244;28;20078;-67
2021/05/23 10:13:57;;;;;;;4.22;1.35;;;;;;;;;;8262337;28;20383;-68
2021/05/23 10:18:03;;;;;;;5.35;2.08;;;;;;;;;;8259751;28;20488;-68
2021/05/23 10:22:07;;;;;;;6.78;3.33;;;;;;;;;;8260554;28;20395;-68
2021/05/23 10:26:13;;;;;;;4.93;1.17;;;;;;;;;;8259980;28;20060;-69
2021/05/23 10:30:19;;;;;;;7.25;1.70;;;;;;;;;;8257904;28;20057;-68
2021/05/23 10:34:35;;;;;;;6.22;1.15;;;;;;;;;;8260977;28;20371;-68
2021/05/23 10:38:41;;;;;;;3.50;1.33;;;;;;;;;;8254616;28;20472;-69
2021/05/23 10:42:59;;;;;;;3.40;1.45;;;;;;;;;;8295580;28;20474;-68
2021/05/23 10:47:11;;;;;;;3.97;1.20;;;;;;;;;;8327212;28;20358;-68
2021/05/23 10:51:17;;;;;;;3.55;1.65;;;;;;;;;;8307345;28;20470;-68
2021/05/23 10:55:22;;;;;;;2.80;1.45;;;;;;;;;;8324206;28;20372;-67
2021/05/23 10:59:30;;;;;;;5.53;1.60;;;;;;;;;;8323709;28;20367;-68
2021/05/23 11:03:35;;;;;;;11.18;5.07;;;;;;;;;;8324708;28;20052;-69
2021/05/23 11:07:41;;;;;;;9.25;1.95;;;;;;;;;;8324742;28;20446;-68
2021/05/23 11:11:45;;;;;;;6.63;3.00;;;;;;;;;;8324254;28;20355;-68
2021/05/23 11:15:50;;;;;;;6.57;1.60;;;;;;;;;;8323987;28;20386;-68
2021/05/23 11:19:55;;;;;;;4.38;1.52;;;;;;;;;;8323605;28;20367;-68
2021/05/23 11:24:00;;;;;;;8.68;2.38;;;;;;;;;;8323013;28;20355;-69
2021/05/23 11:28:08;;;;;;;6.40;1.90;;;;;;;;;;8322954;28;20473;-69
2021/05/23 11:32:16;;;;;;;6.05;1.88;;;;;;;;;;8305871;28;20462;-68
2021/05/23 11:36:26;;;;;;;6.82;2.28;;;;;;;;;;8325918;28;20056;-69
2021/05/23 11:40:35;;;;;;;5.68;2.40;;;;;;;;;;8306349;28;20383;-69
2021/05/23 11:44:42;;;;;;;6.28;2.33;;;;;;;;;;8323096;28;20340;-69
2021/05/23 11:48:47;;;;;;;4.70;2.45;;;;;;;;;;8323658;28;20493;-69
2021/05/23 11:52:55;;;;;;;5.70;2.35;;;;;;;;;;8312154;28;20465;-69
2021/05/23 11:56:59;;;;;;;3.90;1.30;;;;;;;;;;8334019;28;20481;-72
2021/05/23 12:01:12;;;;;;;1.50;0.90;;;;;;;;;;8334630;28;20390;-72
2021/05/23 12:05:17;;;;;;;6.43;1.10;;;;;;;;;;8316753;28;20489;-70
2021/05/23 12:09:31;;;;;;;5.60;1.10;;;;;;;;;;8334025;28;20055;-71
2021/05/23 12:13:38;;;;;;;1.90;1.13;;;;;;;;;;8316873;28;20489;-69
2021/05/23 12:17:54;;;;;;;3.33;1.20;;;;;;;;;;8316592;28;20051;-71
2021/05/23 12:21:59;;;;;;;6.28;1.45;;;;;;;;;;8333956;28;20056;-70
2021/05/23 12:26:16;;;;;;;4.63;1.27;;;;;;;;;;8332734;28;20501;-71
2021/05/23 12:30:31;;;;;;;1.58;0.75;;;;;;;;;;8334310;28;20056;-71
2021/05/23 12:34:43;;;;;;;2.78;1.17;;;;;;;;;;8333474;28;20463;-71
2021/05/23 12:39:04;;;;;;;4.07;0.70;;;;;;;;;;8334903;28;20458;-72
2021/05/23 12:43:33;;;;;;;0.85;0.70;;;;;;;;;;8333595;28;20493;-71
2021/05/23 12:47:53;;;;;;;3.53;1.75;;;;;;;;;;8332104;28;20463;-74
2021/05/23 12:51:59;;;;;;;13.50;9.23;;;;;;;;;;8333497;28;20052;-71
2021/05/23 12:56:21;;;;;;;10.27;5.95;;;;;;;;;;8334650;28;20063;-70
2021/05/23 13:00:29;;;;;;;13.15;9.10;;;;;;;;;;8317651;28;20350;-71
2021/05/23 13:04:34;;;;;;;15.38;8.00;;;;;;;;;;8329933;28;20413;-73
2021/05/23 13:08:40;;;;;;;7.32;2.30;;;;;;;;;;8330230;28;20462;-70
2021/05/23 13:12:45;;;;;;;3.35;2.17;;;;;;;;;;8327705;28;20380;-69
2021/05/23 13:16:54;;;;;;;3.90;2.25;;;;;;;;;;8327608;28;20335;-70
2021/05/23 13:21:17;;;;;;;4.30;3.05;;;;;;;;;;8327028;28;20383;-70
2021/05/23 13:25:24;;;;;;;4.70;2.72;;;;;;;;;;8310607;28;20475;-68
2021/05/23 13:29:30;;;;;;;6.72;2.97;;;;;;;;;;8310501;28;20470;-69
2021/05/23 13:33:35;;;;;;;6.75;2.70;;;;;;;;;;8329075;28;20386;-69
2021/05/23 13:37:44;;;;;;;11.43;3.85;;;;;;;;;;8327726;28;20391;-69
2021/05/23 13:41:49;;;;;;;12.60;5.53;;;;;;;;;;8308608;28;20471;-70
2021/05/23 13:45:57;;;;;;;16.98;5.63;;;;;;;;;;8326500;28;20387;-68
2021/05/23 13:50:05;;;;;;;22.80;8.43;;;;;;;;;;8326428;28;20508;-68
2021/05/23 13:54:11;;;;;;;10.43;3.85;;;;;;;;;;8309586;28;20459;-70
2021/05/23 13:58:18;;;;;;;8.10;4.15;;;;;;;;;;8325804;28;20367;-69
2021/05/23 14:02:23;;;;;;;10.35;5.85;;;;;;;;;;8327784;28;20074;-69
2021/05/23 14:06:28;;;;;;;34.90;16.27;;;;;;;;;;8328034;28;20470;-70
2021/05/23 14:10:34;;;;;;;12.35;6.43;;;;;;;;;;8325438;28;20059;-70
2021/05/23 14:14:39;;;;;;;7.82;3.45;;;;;;;;;;8325146;28;20455;-70
2021/05/23 14:18:44;;;;;;;15.43;6.00;;;;;;;;;;8307752;28;20413;-69
2021/05/23 14:22:56;;;;;;;9.18;4.18;;;;;;;;;;8327655;28;20470;-70
2021/05/23 14:27:09;;;;;;;8.63;4.95;;;;;;;;;;8310135;28;20383;-68
2021/05/23 14:31:15;;;;;;;11.48;7.22;;;;;;;;;;8324262;28;20510;-68
2021/05/23 14:35:23;;;;;;;13.25;6.70;;;;;;;;;;8308615;28;20370;-70
2021/05/23 14:39:27;;;;;;;9.27;4.28;;;;;;;;;;8326299;28;20362;-68
2021/05/23 14:43:35;;;;;;;6.90;2.80;;;;;;;;;;8324660;28;20390;-69
2021/05/23 14:47:41;;;;;;;5.72;2.20;;;;;;;;;;8326225;28;20059;-69
2021/05/23 14:51:44;;;;;;;3.50;2.13;;;;;;;;;;8326066;28;20405;-70
2021/05/23 14:55:50;;;;;;;4.38;2.10;;;;;;;;;;8325792;28;20381;-69
2021/05/23 14:59:58;;;;;;;4.43;2.05;;;;;;;;;;8325028;28;20485;-69
2021/05/23 15:04:04;;;;;;;13.45;3.28;;;;;;;;;;8325217;28;20383;-69
2021/05/23 15:08:08;;;;;;;8.52;3.95;;;;;;;;;;8324472;28;20459;-71
2021/05/23 15:12:13;;;;;;;14.00;4.13;;;;;;;;;;8305280;28;20348;-68
2021/05/23 15:16:17;;;;;;;15.50;5.20;;;;;;;;;;8306724;28;20386;-70
2021/05/23 15:20:22;;;;;;;13.98;4.72;;;;;;;;;;8324602;28;20413;-70
2021/05/23 15:24:29;;;;;;;19.83;7.40;;;;;;;;;;8322288;28;20493;-70
2021/05/23 15:33:09;;;;;;;9.95;4.40;;;;;;;;;;8324252;28;20052;-68
2021/05/23 15:37:14;;;;;;;11.93;5.23;;;;;;;;;;8322384;28;20467;-68
2021/05/23 15:41:19;;;;;;;10.90;3.80;;;;;;;;;;8320919;28;20501;-69
2021/05/23 15:45:31;;;;;;;11.63;4.47;;;;;;;;;;8321711;28;20509;-69
2021/05/23 15:49:36;;;;;;;7.88;3.10;;;;;;;;;;8302444;28;20363;-69
2021/05/23 15:53:41;;;;;;;8.23;3.33;;;;;;;;;;8322011;28;20513;-70
2021/05/23 15:57:46;;;;;;;11.80;4.43;;;;;;;;;;8288726;28;20502;-68
2021/05/23 16:01:51;;;;;;;10.32;3.90;;;;;;;;;;8323208;28;20052;-69
2021/05/23 16:05:56;;;;;;;17.42;7.95;;;;;;;;;;8322065;28;20560;-69
2021/05/23 16:10:01;;;;;;;9.38;3.30;;;;;;;;;;8303732;28;20329;-69
2021/05/23 16:14:06;;;;;;;14.60;5.30;;;;;;;;;;8324724;28;20390;-69
2021/05/23 16:18:11;;;;;;;19.73;8.88;;;;;;;;;;8322830;28;20110;-68
2021/05/23 16:22:15;;;;;;;16.88;7.57;;;;;;;;;;8323066;28;20344;-69
2021/05/23 16:26:20;;;;;;;16.38;9.13;;;;;;;;;;8322370;28;20405;-70
2021/05/23 16:30:25;;;;;;;24.00;14.48;;;;;;;;;;8323115;28;20370;-69
2021/05/23 16:34:32;;;;;;;22.33;16.02;;;;;;;;;;8322931;28;20378;-70
2021/05/23 16:38:38;;;;;;;19.20;11.10;;;;;;;;;;8325140;28;20082;-68
2021/05/23 16:42:43;;;;;;;19.00;9.85;;;;;;;;;;8329990;28;20378;-68
2021/05/23 16:46:48;;;;;;;14.70;9.25;;;;;;;;;;8328563;28;20466;-69
2021/05/23 16:50:54;;;;;;;16.20;7.85;;;;;;;;;;8329916;28;20351;-69
2021/05/23 16:54:59;;;;;;;15.25;7.00;;;;;;;;;;8329665;28;20394;-69
2021/05/23 16:59:04;;;;;;;9.48;4.72;;;;;;;;;;8310290;28;20056;-69
2021/05/23 17:03:09;;;;;;;15.20;6.65;;;;;;;;;;8309722;28;20475;-69
2021/05/23 17:07:19;;;;;;;7.38;3.88;;;;;;;;;;8327553;28;20382;-68
2021/05/23 17:11:24;;;;;;;7.85;3.85;;;;;;;;;;8328135;28;20478;-68
2021/05/23 17:15:29;;;;;;;8.82;4.15;;;;;;;;;;8327782;28;20378;-68
2021/05/23 17:19:33;;;;;;;8.52;3.58;;;;;;;;;;8327240;28;20481;-68
2021/05/23 17:23:38;;;;;;;10.57;4.75;;;;;;;;;;8328253;28;20451;-69
2021/05/23 17:27:48;;;;;;;15.25;5.70;;;;;;;;;;8326470;28;20375;-67
2021/05/23 17:31:56;;;;;;;13.82;5.40;;;;;;;;;;8329735;28;20114;-68
2021/05/23 17:36:01;;;;;;;14.83;7.03;;;;;;;;;;8310588;28;20466;-69
2021/05/23 17:40:07;;;;;;;10.48;3.90;;;;;;;;;;8326518;28;20462;-68
2021/05/23 17:44:14;;;;;;;7.28;3.20;;;;;;;;;;8326755;28;20382;-67
2021/05/23 17:48:19;;;;;;;17.60;7.07;;;;;;;;;;8328835;28;20344;-69
2021/05/23 17:52:24;;;;;;;9.82;4.88;;;;;;;;;;8328079;28;20470;-68
2021/05/23 17:56:29;;;;;;;9.35;4.78;;;;;;;;;;8327788;28;20405;-68
2021/05/23 18:00:35;;;;;;;15.23;5.80;;;;;;;;;;8325978;28;20435;-69
2021/05/23 18:04:39;;;;;;;15.95;6.13;;;;;;;;;;8326156;28;20462;-68
2021/05/23 18:08:45;;;;;;;27.25;9.63;;;;;;;;;;8325629;28;20141;-69
2021/05/23 18:12:51;;;;;;;34.22;12.52;;;;;;;;;;8325593;28;20382;-69
2021/05/23 18:16:55;;;;;;;21.98;7.80;;;;;;;;;;8326832;28;20397;-67
2021/05/23 18:21:03;;;;;;;25.85;9.57;;;;;;;;;;8325711;28;20346;-69
2021/05/23 18:25:09;;;;;;;36.97;13.68;;;;;;;;;;8325641;28;20350;-68
2021/05/23 18:29:14;;;;;;;19.65;8.90;;;;;;;;;;8325626;28;20475;-66
2021/05/23 18:33:20;;;;;;;14.80;6.03;;;;;;;;;;8325381;28;20397;-68
2021/05/23 18:37:26;;;;;;;19.60;7.30;;;;;;;;;;8325304;28;20052;-66
2021/05/23 18:41:32;;;;;;;8.63;4.25;;;;;;;;;;8326924;28;20397;-67
2021/05/23 18:45:37;;;;;;;12.20;4.30;;;;;;;;;;8325343;28;20048;-67
2021/05/23 18:49:43;;;;;;;9.60;4.35;;;;;;;;;;8325365;28;20052;-68
2021/05/23 18:53:48;;;;;;;8.40;4.90;;;;;;;;;;8326540;28;20800;-67
2021/05/23 18:57:54;;;;;;;7.97;4.53;;;;;;;;;;8324539;28;20483;-68
2021/05/23 19:01:59;;;;;;;8.43;4.95;;;;;;;;;;8323231;28;20493;-69
2021/05/23 19:06:04;;;;;;;11.82;4.80;;;;;;;;;;8326635;28;20386;-68
2021/05/23 19:10:12;;;;;;;9.10;4.38;;;;;;;;;;8326087;28;20417;-68
2021/05/23 19:14:17;;;;;;;;;;;;;;;;;;8324755;28;20489;-68
2021/05/23 19:18:20;;;;;;;17.00;7.32;;;;;;;;;;8323833;28;20368;-68
2021/05/23 19:22:25;;;;;;;27.15;10.18;;;;;;;;;;8323469;28;20425;-69
2021/05/23 19:26:30;;;;;;;21.88;9.43;;;;;;;;;;8324309;28;20051;-69
2021/05/23 19:30:35;;;;;;;23.05;9.57;;;;;;;;;;8325730;28;20443;-69
2021/05/23 19:34:40;;;;;;;25.05;10.75;;;;;;;;;;8324028;28;20362;-68
2021/05/23 19:38:45;;;;;;;35.58;14.15;;;;;;;;;;8323901;28;20157;-69
2021/05/23 19:42:50;;;;;;;27.13;12.50;;;;;;;;;;8324453;28;20064;-67
2021/05/23 19:46:55;;;;;;;27.63;12.15;;;;;;;;;;8305460;28;20134;-68
2021/05/23 19:51:00;;;;;;;21.42;9.68;;;;;;;;;;8323348;28;20052;-68
2021/05/23 19:55:05;;;;;;;22.55;10.15;;;;;;;;;;8322858;28;20359;-69
2021/05/23 19:59:11;;;;;;;21.70;10.60;;;;;;;;;;8323614;28;20055;-69
2021/05/23 20:03:16;;;;;;;17.42;8.65;;;;;;;;;;8324094;28;20074;-69
2021/05/23 20:07:21;;;;;;;17.20;9.63;;;;;;;;;;8322224;28;20486;-67
2021/05/23 20:11:26;;;;;;;14.45;7.20;;;;;;;;;;8325048;28;20431;-68
2021/05/23 20:15:31;;;;;;;14.07;5.53;;;;;;;;;;8330179;28;20474;-68
2021/05/23 20:19:36;;;;;;;16.88;9.90;;;;;;;;;;8330327;28;20478;-68
2021/05/23 20:23:41;;;;;;;24.60;13.18;;;;;;;;;;8330227;28;20375;-68
2021/05/23 20:27:46;;;;;;;17.33;9.63;;;;;;;;;;8330355;28;20409;-68
2021/05/23 20:31:54;;;;;;;14.68;8.07;;;;;;;;;;8331612;28;20435;-68
2021/05/23 20:35:58;;;;;;;17.15;8.98;;;;;;;;;;8329442;28;20459;-67
2021/05/23 20:40:06;;;;;;;11.70;5.93;;;;;;;;;;8331055;28;20481;-67
2021/05/23 20:44:14;;;;;;;15.75;8.75;;;;;;;;;;8327448;28;20524;-70
2021/05/23 20:48:19;;;;;;;14.67;8.03;;;;;;;;;;8330679;28;20457;-69
2021/05/23 20:52:24;;;;;;;19.98;8.63;;;;;;;;;;8294202;28;20406;-69
2021/05/23 20:56:31;;;;;;;27.70;14.35;;;;;;;;;;8331617;28;20363;-68
2021/05/23 21:00:36;;;;;;;15.70;7.40;;;;;;;;;;8330301;28;20573;-69
2021/05/23 21:04:42;;;;;;;15.95;5.82;;;;;;;;;;8328606;28;20496;-69
2021/05/23 21:08:47;;;;;;;15.98;8.45;;;;;;;;;;8330382;28;20060;-68
2021/05/23 21:12:52;;;;;;;12.00;6.22;;;;;;;;;;8330416;28;20052;-69
2021/05/23 21:16:57;;;;;;;9.90;4.95;;;;;;;;;;8329481;28;20394;-69
2021/05/23 21:21:01;;;;;;;19.25;6.32;;;;;;;;;;8328485;28;20458;-69
2021/05/23 21:25:07;;;;;;;16.15;6.43;;;;;;;;;;8327119;28;20366;-69
2021/05/23 21:29:12;;;;;;;66.35;20.73;;;;;;;;;;8327217;28;20443;-68
2021/05/23 21:33:17;;;;;;;12.93;6.40;;;;;;;;;;8330933;28;20523;-68
2021/05/23 21:37:22;;;;;;;16.13;6.40;;;;;;;;;;8327813;28;20378;-68
2021/05/23 21:41:27;;;;;;;15.80;6.40;;;;;;;;;;8326716;28;20462;-69
2021/05/23 21:45:32;;;;;;;15.90;6.63;;;;;;;;;;8328283;28;20044;-70
2021/05/23 21:49:36;;;;;;;18.15;6.13;;;;;;;;;;8327377;28;20455;-69
2021/05/23 21:53:42;;;;;;;15.88;7.30;;;;;;;;;;8328664;28;20503;-68
2021/05/23 21:57:46;;;;;;;12.10;6.03;;;;;;;;;;8309183;28;20358;-69
2021/05/23 22:01:52;;;;;;;11.43;6.30;;;;;;;;;;8307866;28;20471;-69
2021/05/23 22:05:58;;;;;;;12.52;5.72;;;;;;;;;;8327676;28;20048;-69
2021/05/23 22:10:09;;;;;;;16.35;5.15;;;;;;;;;;8327264;28;20383;-69
2021/05/23 22:14:14;;;;;;;9.73;5.00;;;;;;;;;;8327686;28;20470;-67
2021/05/23 22:18:19;;;;;;;13.52;5.55;;;;;;;;;;8308309;28;20387;-68
2021/05/23 22:22:24;;;;;;;12.27;4.78;;;;;;;;;;8327622;28;20482;-69
2021/05/23 22:26:28;;;;;;;9.82;4.55;;;;;;;;;;8326111;28;20501;-70
2021/05/23 22:30:33;;;;;;;7.13;4.90;;;;;;;;;;8324029;28;20360;-68
2021/05/23 22:34:38;;;;;;;8.48;4.53;;;;;;;;;;8325863;28;20443;-68
2021/05/23 22:38:43;;;;;;;10.43;4.82;;;;;;;;;;8324790;28;20052;-68
2021/05/23 22:42:48;;;;;;;8.75;4.90;;;;;;;;;;8325201;28;20395;-69
2021/05/23 22:46:52;;;;;;;10.23;5.53;;;;;;;;;;8309990;28;20435;-68
2021/05/23 22:50:58;;;;;;;10.48;5.03;;;;;;;;;;8326450;28;20488;-69
2021/05/23 22:55:06;;;;;;;11.63;5.05;;;;;;;;;;8324750;28;20462;-68
2021/05/23 22:59:11;;;;;;;9.15;4.80;;;;;;;;;;8325041;28;20477;-68
2021/05/23 23:03:20;;;;;;;9.43;5.03;;;;;;;;;;8324821;28;20113;-69
2021/05/23 23:07:25;;;;;;;12.30;4.90;;;;;;;;;;8324886;28;20442;-68
2021/05/23 23:11:30;;;;;;;8.75;4.40;;;;;;;;;;8324706;28;20489;-68
2021/05/23 23:15:35;;;;;;;11.73;4.55;;;;;;;;;;8325148;28;20374;-67
2021/05/23 23:19:41;;;;;;;6.32;4.28;;;;;;;;;;8325572;28;20399;-67
2021/05/23 23:23:46;;;;;;;6.72;3.97;;;;;;;;;;8324980;28;20484;-69
2021/05/23 23:27:52;;;;;;;7.50;4.30;;;;;;;;;;8325949;28;20485;-69
2021/05/23 23:31:57;;;;;;;27.45;15.73;;;;;;;;;;8323755;28;20383;-68
2021/05/23 23:36:03;;;;;;;8.57;4.60;;;;;;;;;;8323514;28;20070;-67
2021/05/23 23:40:09;;;;;;;7.80;4.53;;;;;;;;;;8323883;28;20475;-69
2021/05/23 23:44:14;;;;;;;10.10;4.45;;;;;;;;;;8322770;28;20422;-67
2021/05/23 23:48:19;;;;;;;10.73;5.05;;;;;;;;;;8323190;28;20470;-68
2021/05/23 23:52:32;;;;;;;6.90;4.03;;;;;;;;;;8323419;28;20366;-69
2021/05/23 23:56:37;;;;;;;11.55;4.63;;;;;;;;;;8323136;28;20074;-69
